Terminal Aerodrome Forecast
Issued by NWS

Current Version | Previous Version | Text Only | Print | Product List | Glossary Off
Versions: 1 2 3 4 5 6 7 8 9 10 11 12 13 14 15 16 17 18 19 20 21 22 23

000
FTUS41 KRLX 250300 AAA
TAFCKB
TAF AMD
KCKB 250305Z 2503/2524 26012G26KT P6SM BKN040
     FM250400 26011KT P6SM BKN040
     FM251400 24011G18KT P6SM SCT040
     FM252200 24011KT P6SM SCT200=

USA.gov is the U.S. government's official web portal to all federal, state and local government web resources and services.